Terminal Aerodrome Forecast
Issued by NWS Los Angeles, CA

Home | Current Version | Previous Version | Text Only | Print | Product List | Glossary On
Versions: 1 2 3 4 5 6 7 8 9 10 11 12 13 14 15 16 17 18
251
FTUS46 KLOX 281720
TAFSMX
TAF
KSMX 281720Z 2818/0118 33007KT P6SM SKC
     FM282100 31015G25KT P6SM FEW060
     FM010300 33008KT P6SM SKC
     FM010900 02006KT P6SM SKC=

USA.gov is the U.S. government's official web portal to all federal, state and local government web resources and services.